Time;durP1;ratioP1;P1;durP2;ratioP2;P2;SDS_P1;SDS_P2;PMS_P1;PMS_P2;Temp;Humidity;BMP_temperature;BMP_pressure;BME280_temperature;BME280_humidity;BME280_pressure;Samples;Min_cycle;Max_cycle;Signal;HPM_P1;HPM_P2
2021/04/03 00:01:01;;;;;;;15.13;13.00;;;;;;;;;;10001268;29;20047;-62
2021/04/03 00:05:59;;;;;;;17.67;14.15;;;;;;;;;;10000721;29;20080;-61
2021/04/03 00:10:57;;;;;;;18.52;15.43;;;;;;;;;;10000118;29;20056;-61
2021/04/03 00:15:54;;;;;;;22.17;15.73;;;;;;;;;;10000558;29;20071;-62
2021/04/03 00:20:52;;;;;;;18.58;14.73;;;;;;;;;;9998448;29;20142;-62
2021/04/03 00:25:51;;;;;;;34.30;20.17;;;;;;;;;;9999617;29;20459;-62
2021/04/03 00:30:48;;;;;;;17.92;13.45;;;;;;;;;;9999935;29;20415;-62
2021/04/03 00:35:45;;;;;;;17.45;12.13;;;;;;;;;;9999598;29;20082;-62
2021/04/03 00:40:44;;;;;;;15.60;12.88;;;;;;;;;;9999251;29;20048;-61
2021/04/03 00:45:42;;;;;;;12.88;11.52;;;;;;;;;;10010601;29;20084;-62
2021/04/03 00:50:41;;;;;;;14.57;11.93;;;;;;;;;;10030517;29;20429;-62
2021/04/03 00:55:38;;;;;;;15.38;13.25;;;;;;;;;;10014759;29;20123;-62
2021/04/03 01:00:37;;;;;;;14.35;12.30;;;;;;;;;;9997985;29;20048;-61
2021/04/03 01:05:36;;;;;;;18.17;14.05;;;;;;;;;;9998769;29;20088;-60
2021/04/03 01:10:35;;;;;;;12.52;11.27;;;;;;;;;;9997550;29;20056;-60
2021/04/03 01:15:38;;;;;;;15.52;11.55;;;;;;;;;;10012014;29;20449;-61
2021/04/03 01:20:48;;;;;;;13.85;11.32;;;;;;;;;;10005452;29;20047;-61
2021/04/03 01:25:52;;;;;;;10.95;9.77;;;;;;;;;;9996905;29;20426;-61
2021/04/03 01:30:51;;;;;;;11.35;9.77;;;;;;;;;;10001582;29;20056;-61
2021/04/03 01:35:53;;;;;;;9.98;8.98;;;;;;;;;;10002804;29;20048;-61
2021/04/03 01:40:54;;;;;;;10.00;8.88;;;;;;;;;;10015408;29;20051;-61
2021/04/03 01:45:55;;;;;;;10.43;9.00;;;;;;;;;;10043659;29;20561;-61
2021/04/03 01:50:54;;;;;;;12.77;11.00;;;;;;;;;;10043255;29;20051;-61
2021/04/03 01:55:53;;;;;;;11.60;8.77;;;;;;;;;;10044400;29;20090;-61
2021/04/03 02:00:52;;;;;;;9.85;8.02;;;;;;;;;;10043616;29;20094;-61
2021/04/03 02:05:52;;;;;;;12.32;9.15;;;;;;;;;;10043328;29;20087;-60
2021/04/03 02:11:12;;;;;;;9.38;7.50;;;;;;;;;;10041842;29;20188;-60
2021/04/03 02:16:11;;;;;;;8.70;7.43;;;;;;;;;;10042895;29;20048;-60
2021/04/03 02:21:12;;;;;;;8.88;7.88;;;;;;;;;;10043305;29;20517;-60
2021/04/03 02:26:15;;;;;;;8.70;6.07;;;;;;;;;;10043241;29;20079;-60
2021/04/03 02:31:13;;;;;;;7.30;6.15;;;;;;;;;;10030520;29;20048;-60
2021/04/03 02:36:13;;;;;;;6.85;5.63;;;;;;;;;;10017363;29;20095;-61
2021/04/03 02:41:11;;;;;;;8.00;5.78;;;;;;;;;;10002704;29;20051;-61
2021/04/03 02:46:22;;;;;;;7.72;6.43;;;;;;;;;;10001048;29;20098;-61
2021/04/03 02:51:28;;;;;;;6.60;4.95;;;;;;;;;;10001919;29;20052;-61
2021/04/03 02:56:26;;;;;;;7.63;4.50;;;;;;;;;;10003979;29;20075;-61
2021/04/03 03:01:24;;;;;;;6.05;4.90;;;;;;;;;;10002089;29;20045;-61
2021/04/03 03:06:31;;;;;;;5.47;4.00;;;;;;;;;;10001874;29;20092;-61
2021/04/03 03:11:29;;;;;;;3.70;3.35;;;;;;;;;;10001186;29;20517;-62
2021/04/03 03:16:32;;;;;;;3.35;3.05;;;;;;;;;;10001341;29;20063;-61
2021/04/03 03:21:30;;;;;;;4.40;3.45;;;;;;;;;;10002432;29;20071;-61
2021/04/03 03:26:30;;;;;;;9.38;3.55;;;;;;;;;;10002466;29;20087;-61
2021/04/03 03:31:29;;;;;;;6.47;3.40;;;;;;;;;;10000225;29;20091;-62
2021/04/03 03:36:28;;;;;;;3.75;3.20;;;;;;;;;;10010666;29;20075;-61
2021/04/03 03:41:28;;;;;;;3.85;3.08;;;;;;;;;;9996393;29;20078;-60
2021/04/03 03:46:27;;;;;;;4.13;3.00;;;;;;;;;;9998235;29;20087;-60
2021/04/03 03:51:24;;;;;;;4.75;3.47;;;;;;;;;;9999833;29;20052;-60
2021/04/03 03:56:36;;;;;;;6.47;3.90;;;;;;;;;;9999294;29;20052;-61
2021/04/03 04:01:34;;;;;;;4.05;3.58;;;;;;;;;;9999197;29;20044;-61
2021/04/03 04:06:34;;;;;;;3.38;3.08;;;;;;;;;;10000981;29;20067;-60
2021/04/03 04:11:33;;;;;;;6.28;3.33;;;;;;;;;;9999345;29;20562;-60
2021/04/03 04:16:38;;;;;;;6.90;2.90;;;;;;;;;;9998733;29;20063;-61
2021/04/03 04:21:38;;;;;;;12.52;7.15;;;;;;;;;;10000609;29;20084;-61
2021/04/03 04:26:37;;;;;;;4.00;3.22;;;;;;;;;;10000002;29;20080;-61
2021/04/03 04:31:34;;;;;;;4.38;3.60;;;;;;;;;;9999015;29;20060;-61
2021/04/03 04:36:38;;;;;;;5.18;3.20;;;;;;;;;;9998688;29;20316;-61
2021/04/03 04:41:39;;;;;;;10.25;3.67;;;;;;;;;;10013094;29;20056;-61
2021/04/03 04:46:37;;;;;;;7.05;4.22;;;;;;;;;;10025888;29;20048;-61
2021/04/03 04:51:38;;;;;;;6.43;4.20;;;;;;;;;;10014944;29;20055;-61
2021/04/03 04:56:48;;;;;;;8.85;4.15;;;;;;;;;;10036360;29;20078;-61
2021/04/03 05:01:52;;;;;;;19.98;11.45;;;;;;;;;;10037054;29;20052;-60
2021/04/03 05:06:51;;;;;;;8.60;4.50;;;;;;;;;;10025539;29;20092;-61
2021/04/03 05:11:49;;;;;;;5.60;4.40;;;;;;;;;;9998303;29;20071;-61
2021/04/03 05:16:46;;;;;;;4.93;4.20;;;;;;;;;;9998992;29;20068;-60
2021/04/03 05:21:43;;;;;;;9.70;4.22;;;;;;;;;;9998001;29;20101;-60
2021/04/03 05:26:41;;;;;;;6.28;4.43;;;;;;;;;;9998646;29;20095;-61
2021/04/03 05:31:39;;;;;;;10.80;4.85;;;;;;;;;;9999824;29;20094;-60
2021/04/03 05:36:36;;;;;;;10.68;6.88;;;;;;;;;;10017704;29;20072;-61
2021/04/03 05:41:33;;;;;;;37.83;21.73;;;;;;;;;;9998800;29;20075;-61
2021/04/03 05:46:32;;;;;;;18.05;11.73;;;;;;;;;;9993140;29;20528;-61
2021/04/03 05:51:29;;;;;;;11.05;8.57;;;;;;;;;;9994402;29;20151;-61
2021/04/03 05:56:26;;;;;;;12.40;9.02;;;;;;;;;;9996538;29;20513;-61
2021/04/03 06:01:25;;;;;;;8.80;6.15;;;;;;;;;;9998006;29;20052;-60
2021/04/03 06:06:25;;;;;;;10.50;7.63;;;;;;;;;;9998132;29;20079;-61
2021/04/03 06:11:24;;;;;;;9.18;6.60;;;;;;;;;;9997940;29;20112;-61
2021/04/03 06:16:28;;;;;;;11.35;8.23;;;;;;;;;;9997825;29;20052;-61
2021/04/03 06:21:27;;;;;;;9.45;8.45;;;;;;;;;;10026333;29;20462;-60
2021/04/03 06:26:24;;;;;;;11.20;8.10;;;;;;;;;;10023084;29;20083;-60
2021/04/03 06:31:23;;;;;;;16.45;11.90;;;;;;;;;;10042757;29;20056;-59
2021/04/03 06:36:20;;;;;;;19.02;8.38;;;;;;;;;;10026595;29;20470;-61
2021/04/03 06:41:19;;;;;;;18.10;15.32;;;;;;;;;;10004129;29;20048;-59
2021/04/03 06:46:23;;;;;;;17.42;9.35;;;;;;;;;;10000713;29;20510;-61
2021/04/03 06:51:21;;;;;;;10.85;8.50;;;;;;;;;;10009816;29;20075;-61
2021/04/03 06:56:21;;;;;;;16.60;10.45;;;;;;;;;;10034688;29;20094;-61
2021/04/03 07:01:19;;;;;;;26.98;18.00;;;;;;;;;;10035828;29;20078;-62
2021/04/03 07:06:16;;;;;;;10.18;6.93;;;;;;;;;;10038908;29;20083;-61
2021/04/03 07:11:14;;;;;;;10.65;7.15;;;;;;;;;;10041739;29;20071;-63
2021/04/03 07:16:13;;;;;;;8.30;7.18;;;;;;;;;;10041051;29;20055;-62
2021/04/03 07:21:10;;;;;;;12.30;8.65;;;;;;;;;;10020723;29;20513;-62
2021/04/03 07:26:09;;;;;;;9.60;7.05;;;;;;;;;;10018909;29;20187;-62
2021/04/03 07:31:07;;;;;;;37.35;22.58;;;;;;;;;;10026685;29;20087;-62
2021/04/03 07:36:07;;;;;;;31.65;22.67;;;;;;;;;;10008226;29;20106;-60
2021/04/03 07:41:16;;;;;;;19.67;10.77;;;;;;;;;;10013971;29;20082;-61
2021/04/03 07:46:15;;;;;;;17.73;11.00;;;;;;;;;;10001676;29;20498;-61
2021/04/03 07:51:14;;;;;;;36.50;25.13;;;;;;;;;;10030023;29;20082;-61
2021/04/03 07:56:12;;;;;;;14.48;9.77;;;;;;;;;;10039986;29;20086;-61
2021/04/03 08:01:09;;;;;;;16.58;10.50;;;;;;;;;;10039720;29;20055;-60
2021/04/03 08:06:07;;;;;;;9.90;7.38;;;;;;;;;;10039293;29;20078;-60
2021/04/03 08:11:14;;;;;;;13.25;7.47;;;;;;;;;;10039306;29;20051;-61
2021/04/03 08:16:13;;;;;;;15.43;10.07;;;;;;;;;;10038972;29;20055;-63
2021/04/03 08:21:10;;;;;;;25.88;8.85;;;;;;;;;;10038981;29;20052;-61
2021/04/03 08:26:08;;;;;;;13.30;9.00;;;;;;;;;;10038646;29;20083;-64
2021/04/03 08:31:13;;;;;;;19.95;14.15;;;;;;;;;;10038474;29;20087;-62
2021/04/03 08:36:11;;;;;;;;;;;;;;;;;;10037918;29;20516;-61
2021/04/03 08:41:08;;;;;;;37.53;20.83;;;;;;;;;;10038362;29;20286;-62
2021/04/03 08:46:08;;;;;;;72.88;33.15;;;;;;;;;;10037968;29;20079;-61
2021/04/03 08:51:07;;;;;;;20.88;14.07;;;;;;;;;;10037587;29;20055;-61
2021/04/03 08:56:05;;;;;;;44.83;32.70;;;;;;;;;;10037948;29;20047;-60
2021/04/03 09:01:03;;;;;;;17.35;9.00;;;;;;;;;;10037818;29;20071;-62
2021/04/03 09:06:01;;;;;;;13.80;9.25;;;;;;;;;;10035815;29;20071;-61
2021/04/03 09:11:01;;;;;;;12.05;9.48;;;;;;;;;;10033995;29;20094;-60
2021/04/03 09:16:05;;;;;;;15.38;10.27;;;;;;;;;;10033149;29;20551;-60
2021/04/03 09:21:03;;;;;;;;;;;;;;;;;;10032925;29;20079;-62
2021/04/03 09:26:01;;;;;;;14.48;10.85;;;;;;;;;;10036460;29;19931;-62
2021/04/03 09:30:59;;;;;;;29.17;18.90;;;;;;;;;;10036649;29;20083;-61
2021/04/03 09:36:07;;;;;;;91.38;50.10;;;;;;;;;;10036834;29;20083;-61
2021/04/03 09:41:19;;;;;;;17.77;14.05;;;;;;;;;;10036265;29;20527;-62
2021/04/03 09:46:18;;;;;;;15.23;9.48;;;;;;;;;;10035322;29;20055;-61
2021/04/03 09:51:15;;;;;;;13.27;10.10;;;;;;;;;;10036653;29;20048;-61
2021/04/03 09:56:12;;;;;;;14.93;10.93;;;;;;;;;;10041079;29;20075;-61
2021/04/03 10:01:10;;;;;;;9.88;8.82;;;;;;;;;;10044464;29;20083;-62
2021/04/03 10:06:08;;;;;;;13.73;10.55;;;;;;;;;;10044209;29;20094;-61
2021/04/03 10:11:06;;;;;;;15.55;9.85;;;;;;;;;;10044156;29;20089;-62
2021/04/03 10:16:04;;;;;;;13.80;10.20;;;;;;;;;;10042910;29;20044;-61
2021/04/03 10:21:01;;;;;;;12.73;10.02;;;;;;;;;;10043356;29;20091;-62
2021/04/03 10:26:00;;;;;;;18.70;13.88;;;;;;;;;;10043415;29;20043;-63
2021/04/03 10:30:57;;;;;;;19.45;12.35;;;;;;;;;;10042359;29;20493;-62
2021/04/03 10:35:54;;;;;;;17.25;11.52;;;;;;;;;;10042639;29;20085;-62
2021/04/03 10:40:52;;;;;;;16.30;11.80;;;;;;;;;;10042952;29;20070;-61
2021/04/03 10:45:50;;;;;;;14.00;10.38;;;;;;;;;;10042954;29;20055;-62
2021/04/03 10:50:47;;;;;;;12.15;10.60;;;;;;;;;;10042336;29;20079;-62
2021/04/03 10:55:44;;;;;;;13.30;10.32;;;;;;;;;;10041876;29;20075;-62
2021/04/03 11:00:42;;;;;;;16.50;12.27;;;;;;;;;;10042277;29;20497;-61
2021/04/03 11:05:40;;;;;;;16.17;10.80;;;;;;;;;;10040901;29;20528;-60
2021/04/03 11:10:37;;;;;;;15.15;11.60;;;;;;;;;;10040933;29;20083;-61
2021/04/03 11:15:34;;;;;;;18.65;11.00;;;;;;;;;;10041196;29;20086;-62
2021/04/03 11:20:32;;;;;;;17.02;12.25;;;;;;;;;;10040633;29;20086;-62
2021/04/03 11:25:30;;;;;;;15.68;11.20;;;;;;;;;;10041123;29;20051;-61
2021/04/03 11:30:28;;;;;;;19.17;14.90;;;;;;;;;;10040420;29;20477;-60
2021/04/03 11:35:26;;;;;;;18.77;15.70;;;;;;;;;;10040063;29;20059;-60
2021/04/03 11:40:23;;;;;;;22.98;19.77;;;;;;;;;;10041228;29;20453;-61
2021/04/03 11:45:22;;;;;;;21.15;15.35;;;;;;;;;;10039651;29;20083;-61
2021/04/03 11:50:19;;;;;;;12.27;10.05;;;;;;;;;;10040896;29;20466;-60
2021/04/03 11:55:17;;;;;;;12.65;10.15;;;;;;;;;;10040499;29;20090;-61
2021/04/03 12:00:15;;;;;;;15.38;12.30;;;;;;;;;;10040452;29;20071;-63
2021/04/03 12:05:14;;;;;;;21.98;14.65;;;;;;;;;;10040439;29;20094;-62
2021/04/03 12:10:13;;;;;;;13.13;11.00;;;;;;;;;;10037720;29;20079;-62
2021/04/03 12:15:11;;;;;;;16.83;10.40;;;;;;;;;;10039420;29;20086;-62
2021/04/03 12:20:09;;;;;;;15.32;10.63;;;;;;;;;;10037544;29;20052;-62
2021/04/03 12:25:11;;;;;;;14.02;11.30;;;;;;;;;;10037339;29;20078;-62
2021/04/03 12:30:09;;;;;;;17.63;12.48;;;;;;;;;;10038255;29;20496;-62
2021/04/03 12:35:07;;;;;;;15.57;12.40;;;;;;;;;;10038919;29;20087;-61
2021/04/03 12:40:05;;;;;;;17.65;12.60;;;;;;;;;;10038400;29;20062;-62
2021/04/03 12:45:03;;;;;;;16.92;13.02;;;;;;;;;;10038378;29;20086;-61
2021/04/03 12:50:01;;;;;;;25.80;19.85;;;;;;;;;;10037334;29;20087;-61
2021/04/03 12:54:58;;;;;;;17.58;11.35;;;;;;;;;;10038887;29;20040;-60
2021/04/03 12:59:57;;;;;;;17.13;12.82;;;;;;;;;;10024415;29;20102;-61
2021/04/03 13:04:55;;;;;;;15.82;11.63;;;;;;;;;;10010621;29;20087;-62
2021/04/03 13:09:53;;;;;;;16.95;12.63;;;;;;;;;;10006619;29;20083;-62
2021/04/03 13:14:50;;;;;;;14.30;10.63;;;;;;;;;;10010805;29;20083;-62
2021/04/03 13:19:47;;;;;;;14.32;11.02;;;;;;;;;;10018985;29;20075;-62
2021/04/03 13:24:45;;;;;;;24.75;17.08;;;;;;;;;;10015159;29;20075;-61
2021/04/03 13:29:43;;;;;;;31.55;20.20;;;;;;;;;;10020000;29;20493;-62
2021/04/03 13:34:41;;;;;;;20.00;12.23;;;;;;;;;;10007905;29;20087;-61
2021/04/03 13:39:41;;;;;;;16.85;13.80;;;;;;;;;;10006181;29;20059;-61
2021/04/03 13:44:40;;;;;;;14.70;11.55;;;;;;;;;;10006040;29;20059;-62
2021/04/03 13:49:38;;;;;;;21.65;13.40;;;;;;;;;;10006327;29;20091;-62
2021/04/03 13:54:35;;;;;;;20.17;13.35;;;;;;;;;;10006546;29;20041;-61
2021/04/03 13:59:33;;;;;;;14.57;9.65;;;;;;;;;;10005713;29;20066;-62
2021/04/03 14:04:31;;;;;;;27.80;19.88;;;;;;;;;;10004265;29;20052;-62
2021/04/03 14:09:28;;;;;;;24.90;12.93;;;;;;;;;;10005446;29;20084;-61
2021/04/03 14:14:26;;;;;;;18.95;13.80;;;;;;;;;;10004958;29;20040;-62
2021/04/03 14:19:23;;;;;;;26.33;17.30;;;;;;;;;;10005431;29;20086;-62
2021/04/03 14:24:21;;;;;;;22.02;12.23;;;;;;;;;;10005205;29;20075;-61
2021/04/03 14:29:18;;;;;;;15.63;11.95;;;;;;;;;;10004604;29;20428;-61
2021/04/03 14:34:16;;;;;;;43.33;28.30;;;;;;;;;;10004562;29;20084;-62
2021/04/03 14:39:14;;;;;;;25.98;19.15;;;;;;;;;;10004662;29;20072;-62
2021/04/03 14:44:13;;;;;;;15.38;12.15;;;;;;;;;;10002626;29;20068;-62
2021/04/03 14:49:10;;;;;;;25.90;15.52;;;;;;;;;;10003908;29;20087;-62
2021/04/03 14:54:07;;;;;;;16.65;11.77;;;;;;;;;;10003857;29;20055;-62
2021/04/03 14:59:04;;;;;;;18.40;12.25;;;;;;;;;;10004138;29;20428;-61
2021/04/03 15:04:03;;;;;;;13.63;11.27;;;;;;;;;;10003453;29;20430;-62
2021/04/03 15:09:00;;;;;;;25.27;18.70;;;;;;;;;;10003635;29;20084;-62
2021/04/03 15:13:57;;;;;;;37.10;27.27;;;;;;;;;;10003038;29;20090;-62
2021/04/03 15:18:55;;;;;;;23.13;16.33;;;;;;;;;;10015403;29;20158;-60
2021/04/03 15:23:57;;;;;;;40.60;27.95;;;;;;;;;;10009627;29;20079;-61
2021/04/03 15:28:54;;;;;;;38.75;27.65;;;;;;;;;;10002324;29;20094;-61
2021/04/03 15:33:52;;;;;;;48.22;30.55;;;;;;;;;;10002496;29;20086;-61
2021/04/03 15:38:49;;;;;;;88.90;59.85;;;;;;;;;;10001914;29;20068;-62
2021/04/03 15:43:47;;;;;;;76.35;59.08;;;;;;;;;;10001962;29;20083;-60
2021/04/03 15:48:44;;;;;;;56.25;41.83;;;;;;;;;;10001833;29;20471;-62
2021/04/03 15:53:42;;;;;;;36.03;27.90;;;;;;;;;;10001260;29;20075;-62
2021/04/03 15:58:39;;;;;;;32.83;25.15;;;;;;;;;;10001410;29;20087;-62
2021/04/03 16:03:37;;;;;;;36.13;29.60;;;;;;;;;;10001229;29;20083;-62
2021/04/03 16:08:34;;;;;;;32.40;27.23;;;;;;;;;;9999761;29;20087;-62
2021/04/03 16:13:32;;;;;;;37.33;26.23;;;;;;;;;;10001044;29;20056;-63
2021/04/03 16:18:30;;;;;;;37.25;28.55;;;;;;;;;;10000271;29;20079;-61
2021/04/03 16:23:29;;;;;;;43.38;28.60;;;;;;;;;;10000260;29;20091;-61
2021/04/03 16:28:27;;;;;;;44.05;32.20;;;;;;;;;;10000033;29;20514;-60
2021/04/03 16:33:25;;;;;;;54.75;34.30;;;;;;;;;;9999953;29;20055;-61
2021/04/03 16:38:22;;;;;;;38.83;29.45;;;;;;;;;;9999972;29;20087;-60
2021/04/03 16:43:20;;;;;;;41.63;31.98;;;;;;;;;;9999742;29;20513;-61
2021/04/03 16:48:18;;;;;;;23.85;20.00;;;;;;;;;;9999665;29;20083;-61
2021/04/03 16:53:16;;;;;;;30.45;21.98;;;;;;;;;;9999716;29;20083;-61
2021/04/03 16:58:13;;;;;;;23.77;19.05;;;;;;;;;;9997604;29;20499;-60
2021/04/03 17:03:12;;;;;;;28.98;22.15;;;;;;;;;;9998675;29;20063;-59
2021/04/03 17:08:09;;;;;;;33.58;27.42;;;;;;;;;;9999012;29;20079;-61
2021/04/03 17:13:06;;;;;;;27.83;18.83;;;;;;;;;;9998410;29;20204;-60
2021/04/03 17:18:04;;;;;;;45.47;34.17;;;;;;;;;;9999158;29;20079;-62
2021/04/03 17:23:02;;;;;;;41.45;31.45;;;;;;;;;;9998483;29;20059;-62
2021/04/03 17:27:59;;;;;;;20.35;15.43;;;;;;;;;;9998113;29;20119;-62
2021/04/03 17:32:57;;;;;;;21.63;18.30;;;;;;;;;;9998891;29;20079;-61
2021/04/03 17:37:54;;;;;;;45.22;37.17;;;;;;;;;;9998694;29;20474;-62
2021/04/03 17:42:53;;;;;;;39.55;32.72;;;;;;;;;;9997708;29;20076;-62
2021/04/03 17:47:51;;;;;;;30.27;25.17;;;;;;;;;;9997913;29;20067;-60
2021/04/03 17:52:49;;;;;;;31.77;23.08;;;;;;;;;;9998546;29;20060;-61
2021/04/03 17:57:46;;;;;;;41.45;32.22;;;;;;;;;;9998048;29;20052;-61
2021/04/03 18:02:44;;;;;;;114.15;71.50;;;;;;;;;;9997745;29;20543;-61
2021/04/03 18:07:42;;;;;;;35.78;26.67;;;;;;;;;;9997882;29;20092;-61
2021/04/03 18:12:39;;;;;;;27.08;20.42;;;;;;;;;;9997839;29;20052;-59
2021/04/03 18:17:37;;;;;;;46.67;37.03;;;;;;;;;;10001765;29;20100;-62
2021/04/03 18:22:38;;;;;;;19.75;16.35;;;;;;;;;;10004712;29;20059;-63
2021/04/03 18:27:35;;;;;;;15.82;14.15;;;;;;;;;;10004069;29;20084;-61
2021/04/03 18:32:32;;;;;;;17.60;14.77;;;;;;;;;;10004996;29;20075;-63
2021/04/03 18:37:30;;;;;;;23.20;17.20;;;;;;;;;;10004361;29;20703;-60
2021/04/03 18:42:29;;;;;;;24.65;17.90;;;;;;;;;;10004206;29;20091;-62
2021/04/03 18:47:26;;;;;;;22.45;17.10;;;;;;;;;;10003777;29;20048;-61
2021/04/03 18:52:23;;;;;;;23.77;16.65;;;;;;;;;;10004020;29;20079;-61
2021/04/03 18:57:21;;;;;;;28.23;20.80;;;;;;;;;;10004065;29;20079;-61
2021/04/03 19:02:19;;;;;;;23.80;18.65;;;;;;;;;;10003612;29;20048;-62
2021/04/03 19:07:16;;;;;;;28.90;21.38;;;;;;;;;;10003676;29;20429;-61
2021/04/03 19:12:14;;;;;;;34.03;19.70;;;;;;;;;;10002316;29;20084;-60
2021/04/03 19:17:12;;;;;;;20.17;15.70;;;;;;;;;;10003639;29;20418;-61
2021/04/03 19:22:10;;;;;;;20.65;15.32;;;;;;;;;;10002730;29;20044;-62
2021/04/03 19:27:07;;;;;;;16.23;12.45;;;;;;;;;;10001069;29;20048;-61
2021/04/03 19:32:05;;;;;;;18.80;13.38;;;;;;;;;;10002334;29;20090;-63
2021/04/03 19:37:03;;;;;;;21.15;15.27;;;;;;;;;;10001985;29;20083;-62
2021/04/03 19:42:01;;;;;;;16.85;13.10;;;;;;;;;;9999382;29;20076;-64
2021/04/03 19:46:58;;;;;;;17.75;14.23;;;;;;;;;;10013432;29;20079;-62
2021/04/03 19:51:55;;;;;;;19.67;16.00;;;;;;;;;;10005662;29;20072;-62
2021/04/03 19:56:53;;;;;;;17.25;15.02;;;;;;;;;;10001551;29;20072;-61
2021/04/03 20:01:51;;;;;;;19.35;15.05;;;;;;;;;;10001413;29;20541;-62
2021/04/03 20:06:48;;;;;;;23.85;18.15;;;;;;;;;;10012254;29;20090;-62
2021/04/03 20:11:45;;;;;;;21.25;14.85;;;;;;;;;;10000940;29;20076;-61
2021/04/03 20:16:43;;;;;;;32.75;24.20;;;;;;;;;;10034604;29;20106;-61
2021/04/03 20:21:41;;;;;;;23.00;18.85;;;;;;;;;;10019371;29;20102;-61
2021/04/03 20:26:38;;;;;;;25.73;20.73;;;;;;;;;;10013131;29;20890;-61
2021/04/03 20:31:36;;;;;;;22.10;18.42;;;;;;;;;;10020329;29;20094;-61
2021/04/03 20:36:33;;;;;;;22.75;16.80;;;;;;;;;;10017758;29;20067;-61
2021/04/03 20:41:31;;;;;;;21.60;16.30;;;;;;;;;;10025376;29;20109;-62
2021/04/03 20:46:29;;;;;;;20.95;16.45;;;;;;;;;;10031234;29;20494;-61
2021/04/03 20:51:26;;;;;;;16.55;14.73;;;;;;;;;;10019984;29;20087;-61
2021/04/03 20:56:24;;;;;;;18.63;15.48;;;;;;;;;;10019381;29;20067;-61
2021/04/03 21:01:22;;;;;;;20.90;16.63;;;;;;;;;;10026781;29;20067;-57
2021/04/03 21:06:19;;;;;;;23.20;16.55;;;;;;;;;;10024315;29;20075;-61
2021/04/03 21:11:16;;;;;;;22.33;17.98;;;;;;;;;;10033790;29;20548;-61
2021/04/03 21:16:14;;;;;;;36.83;24.55;;;;;;;;;;10023811;29;20425;-61
2021/04/03 21:21:12;;;;;;;23.80;19.33;;;;;;;;;;10019213;29;20075;-59
2021/04/03 21:26:09;;;;;;;23.60;18.55;;;;;;;;;;10013761;29;20067;-61
2021/04/03 21:31:06;;;;;;;23.92;19.90;;;;;;;;;;10020440;29;20079;-61
2021/04/03 21:36:04;;;;;;;24.33;19.80;;;;;;;;;;10023037;29;20060;-60
2021/04/03 21:41:02;;;;;;;24.50;20.35;;;;;;;;;;10015390;29;20075;-61
2021/04/03 21:46:00;;;;;;;27.75;20.45;;;;;;;;;;10020241;29;21115;-61
2021/04/03 21:50:57;;;;;;;30.58;23.88;;;;;;;;;;10022128;29;20106;-60
2021/04/03 21:55:54;;;;;;;24.73;18.38;;;;;;;;;;10021816;29;20076;-61
2021/04/03 22:00:53;;;;;;;19.10;14.55;;;;;;;;;;10028388;29;20074;-60
2021/04/03 22:05:50;;;;;;;15.70;13.32;;;;;;;;;;10019657;29;20079;-59
2021/04/03 22:10:49;;;;;;;16.50;13.45;;;;;;;;;;10025919;29;20075;-60
2021/04/03 22:15:46;;;;;;;13.25;11.02;;;;;;;;;;10024629;29;20375;-60
2021/04/03 22:20:45;;;;;;;11.60;10.20;;;;;;;;;;10025878;29;20485;-60
2021/04/03 22:25:42;;;;;;;14.80;12.02;;;;;;;;;;10025446;29;20082;-61
2021/04/03 22:30:40;;;;;;;11.90;10.25;;;;;;;;;;10028039;29;20524;-60
2021/04/03 22:35:37;;;;;;;13.13;11.70;;;;;;;;;;10028963;29;20072;-61
2021/04/03 22:40:35;;;;;;;12.07;10.80;;;;;;;;;;10028833;29;20075;-60
2021/04/03 22:45:33;;;;;;;11.93;10.48;;;;;;;;;;10025867;29;20563;-61
2021/04/03 22:50:31;;;;;;;11.85;10.63;;;;;;;;;;10024721;29;20075;-60
2021/04/03 22:55:28;;;;;;;13.15;9.98;;;;;;;;;;10025442;29;20531;-62
2021/04/03 23:00:27;;;;;;;12.13;10.73;;;;;;;;;;10020649;29;20072;-60
2021/04/03 23:05:26;;;;;;;12.40;10.88;;;;;;;;;;10009263;29;20064;-61
2021/04/03 23:10:23;;;;;;;10.43;9.38;;;;;;;;;;10033515;29;20093;-61
2021/04/03 23:15:21;;;;;;;10.85;9.65;;;;;;;;;;10042475;29;20524;-62
2021/04/03 23:20:19;;;;;;;9.82;8.82;;;;;;;;;;10042321;29;20086;-62
2021/04/03 23:25:21;;;;;;;12.90;9.73;;;;;;;;;;10042435;29;20059;-61
2021/04/03 23:30:18;;;;;;;10.55;9.45;;;;;;;;;;10040864;29;20117;-61
2021/04/03 23:35:16;;;;;;;11.48;9.30;;;;;;;;;;10042151;29;20070;-62
2021/04/03 23:40:15;;;;;;;10.05;9.02;;;;;;;;;;10030881;29;20047;-62
2021/04/03 23:45:12;;;;;;;11.07;9.90;;;;;;;;;;10023323;29;20080;-61
2021/04/03 23:50:11;;;;;;;9.95;8.95;;;;;;;;;;10017591;29;20083;-61
2021/04/03 23:55:09;;;;;;;10.95;9.48;;;;;;;;;;10002378;29;20071;-60
